Terminal Aerodrome Forecast
Issued by NWS

Home | Current Version | Previous Version | Text Only | Print | Product List | Glossary On
Versions: 1 2 3 4 5 6 7 8 9 10 11 12 13 14 15 16 17 18
000
FTUS46 KSEW 170520
TAFOLM
TAF
KOLM 170520Z 1706/1806 19005KT P6SM FEW045 FEW080 BKN200
     FM171000 20008KT P6SM BKN040 OVC080
     FM171500 20013G20KT P6SM -RA BKN020 OVC030
     FM172100 25010KT P6SM SCT050 BKN250
     FM180100 VRB03KT P6SM FEW060 BKN200=

USA.gov is the U.S. government's official web portal to all federal, state and local government web resources and services.